sensor_id;sensor_type;location;lat;lon;timestamp;pressure;altitude;pressure_sealevel;temperature;humidity
35989;BME280;22064;42.672;23.282;2022-07-23T00:00:31;94938.41;;;21.01;100.00
35989;BME280;22064;42.672;23.282;2022-07-23T00:02:57;94928.09;;;20.76;100.00
35989;BME280;22064;42.672;23.282;2022-07-23T00:05:22;94936.78;;;20.91;100.00
35989;BME280;22064;42.672;23.282;2022-07-23T00:07:48;94946.00;;;20.93;100.00
35989;BME280;22064;42.672;23.282;2022-07-23T00:10:13;94944.75;;;20.99;100.00
35989;BME280;22064;42.672;23.282;2022-07-23T00:12:40;94943.53;;;20.83;100.00
35989;BME280;22064;42.672;23.282;2022-07-23T00:15:06;94946.66;;;20.63;100.00
35989;BME280;22064;42.672;23.282;2022-07-23T00:17:32;94951.16;;;20.48;100.00
35989;BME280;22064;42.672;23.282;2022-07-23T00:19:58;94948.31;;;20.45;100.00
35989;BME280;22064;42.672;23.282;2022-07-23T00:22:23;94946.94;;;20.34;100.00
35989;BME280;22064;42.672;23.282;2022-07-23T00:24:49;94953.03;;;20.20;100.00
35989;BME280;22064;42.672;23.282;2022-07-23T00:27:15;94951.56;;;20.00;100.00
35989;BME280;22064;42.672;23.282;2022-07-23T00:29:41;94956.44;;;19.93;100.00
35989;BME280;22064;42.672;23.282;2022-07-23T00:32:06;94951.84;;;19.85;100.00
35989;BME280;22064;42.672;23.282;2022-07-23T00:34:32;94950.28;;;19.84;100.00
35989;BME280;22064;42.672;23.282;2022-07-23T00:36:57;94961.94;;;19.83;100.00
35989;BME280;22064;42.672;23.282;2022-07-23T00:39:23;94959.59;;;19.95;100.00
35989;BME280;22064;42.672;23.282;2022-07-23T00:41:51;94953.53;;;19.95;100.00
35989;BME280;22064;42.672;23.282;2022-07-23T00:44:25;94958.41;;;20.01;100.00
35989;BME280;22064;42.672;23.282;2022-07-23T00:46:53;94950.59;;;20.10;100.00
35989;BME280;22064;42.672;23.282;2022-07-23T00:49:24;94953.44;;;20.14;100.00
35989;BME280;22064;42.672;23.282;2022-07-23T00:51:50;94950.88;;;20.22;100.00
35989;BME280;22064;42.672;23.282;2022-07-23T00:54:17;94949.22;;;20.26;100.00
35989;BME280;22064;42.672;23.282;2022-07-23T00:56:44;94952.16;;;20.25;100.00
35989;BME280;22064;42.672;23.282;2022-07-23T00:59:10;94958.88;;;20.31;100.00
35989;BME280;22064;42.672;23.282;2022-07-23T01:01:36;94948.81;;;20.33;100.00
35989;BME280;22064;42.672;23.282;2022-07-23T01:04:02;94954.81;;;20.25;100.00
35989;BME280;22064;42.672;23.282;2022-07-23T01:06:28;94955.69;;;20.06;100.00
35989;BME280;22064;42.672;23.282;2022-07-23T01:08:55;94951.94;;;19.80;100.00
35989;BME280;22064;42.672;23.282;2022-07-23T01:11:23;94949.28;;;19.66;100.00
35989;BME280;22064;42.672;23.282;2022-07-23T01:13:49;94948.22;;;19.67;100.00
35989;BME280;22064;42.672;23.282;2022-07-23T01:16:14;94953.66;;;19.57;100.00
35989;BME280;22064;42.672;23.282;2022-07-23T01:18:40;94949.22;;;19.52;100.00
35989;BME280;22064;42.672;23.282;2022-07-23T01:21:05;94935.44;;;19.55;100.00
35989;BME280;22064;42.672;23.282;2022-07-23T01:23:31;94939.09;;;19.41;100.00
35989;BME280;22064;42.672;23.282;2022-07-23T01:25:58;94944.00;;;19.33;100.00
35989;BME280;22064;42.672;23.282;2022-07-23T01:28:25;94940.81;;;19.18;100.00
35989;BME280;22064;42.672;23.282;2022-07-23T01:30:51;94939.97;;;19.03;100.00
35989;BME280;22064;42.672;23.282;2022-07-23T01:33:18;94947.41;;;19.01;100.00
35989;BME280;22064;42.672;23.282;2022-07-23T01:35:44;94944.84;;;18.96;100.00
35989;BME280;22064;42.672;23.282;2022-07-23T01:38:12;94940.44;;;18.91;100.00
35989;BME280;22064;42.672;23.282;2022-07-23T01:40:38;94946.53;;;18.87;100.00
35989;BME280;22064;42.672;23.282;2022-07-23T01:43:04;94940.66;;;18.76;100.00
35989;BME280;22064;42.672;23.282;2022-07-23T01:45:31;94945.91;;;18.76;100.00
35989;BME280;22064;42.672;23.282;2022-07-23T01:47:57;94933.84;;;18.70;100.00
35989;BME280;22064;42.672;23.282;2022-07-23T01:50:23;94944.06;;;18.77;100.00
35989;BME280;22064;42.672;23.282;2022-07-23T01:53:11;94947.31;;;18.68;100.00
35989;BME280;22064;42.672;23.282;2022-07-23T01:55:37;94945.53;;;18.64;100.00
35989;BME280;22064;42.672;23.282;2022-07-23T01:58:03;94945.03;;;18.62;100.00
35989;BME280;22064;42.672;23.282;2022-07-23T02:00:29;94939.47;;;18.63;100.00
35989;BME280;22064;42.672;23.282;2022-07-23T02:02:54;94942.16;;;18.58;100.00
35989;BME280;22064;42.672;23.282;2022-07-23T02:05:21;94951.72;;;18.54;100.00
35989;BME280;22064;42.672;23.282;2022-07-23T02:07:46;94937.53;;;18.50;100.00
35989;BME280;22064;42.672;23.282;2022-07-23T02:10:12;94939.69;;;18.48;100.00
35989;BME280;22064;42.672;23.282;2022-07-23T02:12:37;94942.94;;;18.40;100.00
35989;BME280;22064;42.672;23.282;2022-07-23T02:15:04;94939.88;;;18.33;100.00
35989;BME280;22064;42.672;23.282;2022-07-23T02:17:29;94940.66;;;18.33;100.00
35989;BME280;22064;42.672;23.282;2022-07-23T02:19:55;94941.53;;;18.48;100.00
35989;BME280;22064;42.672;23.282;2022-07-23T02:22:21;94945.88;;;18.57;100.00
35989;BME280;22064;42.672;23.282;2022-07-23T02:24:48;94940.03;;;18.41;100.00
35989;BME280;22064;42.672;23.282;2022-07-23T02:27:14;94945.31;;;18.41;100.00
35989;BME280;22064;42.672;23.282;2022-07-23T02:29:40;94943.38;;;18.47;100.00
35989;BME280;22064;42.672;23.282;2022-07-23T02:32:05;94935.75;;;18.45;100.00
35989;BME280;22064;42.672;23.282;2022-07-23T02:34:31;94920.72;;;18.46;100.00
35989;BME280;22064;42.672;23.282;2022-07-23T02:36:56;94946.31;;;18.64;100.00
35989;BME280;22064;42.672;23.282;2022-07-23T02:39:22;94944.66;;;18.50;100.00
35989;BME280;22064;42.672;23.282;2022-07-23T02:41:48;94924.09;;;18.28;100.00
35989;BME280;22064;42.672;23.282;2022-07-23T02:44:13;94952.50;;;18.36;100.00
35989;BME280;22064;42.672;23.282;2022-07-23T02:46:42;94953.63;;;18.30;100.00
35989;BME280;22064;42.672;23.282;2022-07-23T02:49:07;94954.78;;;18.18;100.00
35989;BME280;22064;42.672;23.282;2022-07-23T02:51:33;94958.22;;;18.19;100.00
35989;BME280;22064;42.672;23.282;2022-07-23T02:54:02;94953.06;;;18.09;100.00
35989;BME280;22064;42.672;23.282;2022-07-23T02:56:28;94956.78;;;18.08;100.00
35989;BME280;22064;42.672;23.282;2022-07-23T02:58:55;94955.88;;;17.93;100.00
35989;BME280;22064;42.672;23.282;2022-07-23T03:01:21;94963.50;;;17.95;100.00
35989;BME280;22064;42.672;23.282;2022-07-23T03:03:47;94962.16;;;17.97;100.00
35989;BME280;22064;42.672;23.282;2022-07-23T03:06:12;94967.09;;;18.04;100.00
35989;BME280;22064;42.672;23.282;2022-07-23T03:08:39;94968.53;;;18.15;100.00
35989;BME280;22064;42.672;23.282;2022-07-23T03:11:05;94975.66;;;18.15;100.00
35989;BME280;22064;42.672;23.282;2022-07-23T03:13:37;94972.59;;;18.08;100.00
35989;BME280;22064;42.672;23.282;2022-07-23T03:16:04;94968.56;;;17.91;100.00
35989;BME280;22064;42.672;23.282;2022-07-23T03:18:30;94975.81;;;17.99;100.00
35989;BME280;22064;42.672;23.282;2022-07-23T03:20:55;94979.88;;;17.92;100.00
35989;BME280;22064;42.672;23.282;2022-07-23T03:23:21;94985.81;;;17.73;100.00
35989;BME280;22064;42.672;23.282;2022-07-23T03:25:47;94988.84;;;17.57;100.00
35989;BME280;22064;42.672;23.282;2022-07-23T03:28:16;94987.56;;;17.54;100.00
35989;BME280;22064;42.672;23.282;2022-07-23T03:30:47;94995.19;;;17.55;100.00
35989;BME280;22064;42.672;23.282;2022-07-23T03:33:14;94987.81;;;17.52;100.00
35989;BME280;22064;42.672;23.282;2022-07-23T03:35:41;94987.31;;;17.50;100.00
35989;BME280;22064;42.672;23.282;2022-07-23T03:38:21;94996.81;;;17.51;100.00
35989;BME280;22064;42.672;23.282;2022-07-23T03:40:46;94995.50;;;17.49;100.00
35989;BME280;22064;42.672;23.282;2022-07-23T03:43:12;94997.59;;;17.52;100.00
35989;BME280;22064;42.672;23.282;2022-07-23T03:45:37;94998.09;;;17.54;100.00
35989;BME280;22064;42.672;23.282;2022-07-23T03:48:03;95004.84;;;17.65;100.00
35989;BME280;22064;42.672;23.282;2022-07-23T03:50:29;95004.50;;;17.77;100.00
35989;BME280;22064;42.672;23.282;2022-07-23T03:52:55;95001.56;;;17.78;100.00
35989;BME280;22064;42.672;23.282;2022-07-23T03:55:20;94980.50;;;17.78;100.00
35989;BME280;22064;42.672;23.282;2022-07-23T03:57:46;94988.53;;;17.92;100.00
35989;BME280;22064;42.672;23.282;2022-07-23T04:00:12;94995.91;;;18.19;100.00
35989;BME280;22064;42.672;23.282;2022-07-23T04:02:42;94974.53;;;18.45;100.00
35989;BME280;22064;42.672;23.282;2022-07-23T04:05:09;94997.03;;;18.99;100.00
35989;BME280;22064;42.672;23.282;2022-07-23T04:07:36;94995.84;;;19.43;100.00
35989;BME280;22064;42.672;23.282;2022-07-23T04:10:02;94997.38;;;19.96;100.00
35989;BME280;22064;42.672;23.282;2022-07-23T04:12:28;94994.72;;;20.37;100.00
35989;BME280;22064;42.672;23.282;2022-07-23T04:14:54;94990.13;;;20.84;100.00
35989;BME280;22064;42.672;23.282;2022-07-23T04:17:20;94989.16;;;21.39;100.00
35989;BME280;22064;42.672;23.282;2022-07-23T04:19:45;94995.97;;;21.54;100.00
35989;BME280;22064;42.672;23.282;2022-07-23T04:22:14;94993.25;;;21.45;100.00
35989;BME280;22064;42.672;23.282;2022-07-23T04:24:41;94999.34;;;20.73;100.00
35989;BME280;22064;42.672;23.282;2022-07-23T04:27:08;95002.25;;;20.02;100.00
35989;BME280;22064;42.672;23.282;2022-07-23T04:29:33;95002.53;;;19.54;100.00
35989;BME280;22064;42.672;23.282;2022-07-23T04:31:59;95008.06;;;19.39;100.00
35989;BME280;22064;42.672;23.282;2022-07-23T04:34:24;95012.91;;;19.51;100.00
35989;BME280;22064;42.672;23.282;2022-07-23T04:36:52;95007.88;;;19.68;100.00
35989;BME280;22064;42.672;23.282;2022-07-23T04:39:19;95003.72;;;19.62;100.00
35989;BME280;22064;42.672;23.282;2022-07-23T04:41:45;95010.00;;;19.99;100.00
35989;BME280;22064;42.672;23.282;2022-07-23T04:44:11;95000.50;;;20.12;100.00
35989;BME280;22064;42.672;23.282;2022-07-23T04:46:37;95010.91;;;20.22;100.00
35989;BME280;22064;42.672;23.282;2022-07-23T04:49:05;95015.41;;;20.07;100.00
35989;BME280;22064;42.672;23.282;2022-07-23T04:51:31;95007.56;;;20.02;100.00
35989;BME280;22064;42.672;23.282;2022-07-23T04:53:56;95015.63;;;20.25;100.00
35989;BME280;22064;42.672;23.282;2022-07-23T04:56:22;95016.00;;;20.32;100.00
35989;BME280;22064;42.672;23.282;2022-07-23T04:58:48;95016.81;;;20.60;100.00
35989;BME280;22064;42.672;23.282;2022-07-23T05:01:13;95017.06;;;20.86;100.00
35989;BME280;22064;42.672;23.282;2022-07-23T05:03:39;95012.59;;;21.09;100.00
35989;BME280;22064;42.672;23.282;2022-07-23T05:06:04;95012.00;;;21.49;100.00
35989;BME280;22064;42.672;23.282;2022-07-23T05:08:30;95013.25;;;21.51;100.00
35989;BME280;22064;42.672;23.282;2022-07-23T05:10:57;95004.69;;;21.77;100.00
35989;BME280;22064;42.672;23.282;2022-07-23T05:13:23;95019.53;;;21.86;100.00
35989;BME280;22064;42.672;23.282;2022-07-23T05:15:51;95022.59;;;22.33;100.00
35989;BME280;22064;42.672;23.282;2022-07-23T05:18:17;95019.88;;;22.65;100.00
35989;BME280;22064;42.672;23.282;2022-07-23T05:20:43;95016.66;;;22.85;100.00
35989;BME280;22064;42.672;23.282;2022-07-23T05:23:11;95017.50;;;23.12;100.00
35989;BME280;22064;42.672;23.282;2022-07-23T05:25:37;95027.50;;;23.49;96.69
35989;BME280;22064;42.672;23.282;2022-07-23T05:28:03;95022.16;;;23.67;94.74
35989;BME280;22064;42.672;23.282;2022-07-23T05:30:29;95028.25;;;23.93;90.27
35989;BME280;22064;42.672;23.282;2022-07-23T05:32:59;95011.03;;;24.00;89.33
35989;BME280;22064;42.672;23.282;2022-07-23T05:35:24;95017.78;;;24.27;87.58
35989;BME280;22064;42.672;23.282;2022-07-23T05:38:07;95013.03;;;24.41;83.40
35989;BME280;22064;42.672;23.282;2022-07-23T05:40:34;95023.81;;;24.53;80.49
35989;BME280;22064;42.672;23.282;2022-07-23T05:43:00;95019.31;;;23.89;85.76
35989;BME280;22064;42.672;23.282;2022-07-23T05:45:25;95024.00;;;23.92;89.20
35989;BME280;22064;42.672;23.282;2022-07-23T05:47:51;95018.47;;;24.15;83.76
35989;BME280;22064;42.672;23.282;2022-07-23T05:50:37;95014.50;;;23.83;88.05
35989;BME280;22064;42.672;23.282;2022-07-23T05:53:19;95024.66;;;23.63;87.13
35989;BME280;22064;42.672;23.282;2022-07-23T05:55:57;95019.06;;;23.39;88.38
35989;BME280;22064;42.672;23.282;2022-07-23T05:58:23;94999.53;;;23.35;88.39
35989;BME280;22064;42.672;23.282;2022-07-23T06:00:48;95019.81;;;23.83;85.77
35989;BME280;22064;42.672;23.282;2022-07-23T06:03:14;95025.06;;;24.17;84.07
35989;BME280;22064;42.672;23.282;2022-07-23T06:05:40;95014.16;;;24.49;78.13
35989;BME280;22064;42.672;23.282;2022-07-23T06:08:07;95009.00;;;24.43;75.28
35989;BME280;22064;42.672;23.282;2022-07-23T06:10:32;95012.63;;;24.69;72.01
35989;BME280;22064;42.672;23.282;2022-07-23T06:12:58;95013.53;;;25.02;68.30
35989;BME280;22064;42.672;23.282;2022-07-23T06:15:24;95005.47;;;25.11;69.51
35989;BME280;22064;42.672;23.282;2022-07-23T06:17:50;95005.22;;;25.25;68.66
35989;BME280;22064;42.672;23.282;2022-07-23T06:20:16;95012.69;;;25.52;67.08
35989;BME280;22064;42.672;23.282;2022-07-23T06:22:41;95011.97;;;25.43;66.26
35989;BME280;22064;42.672;23.282;2022-07-23T06:25:07;95008.47;;;25.51;67.55
35989;BME280;22064;42.672;23.282;2022-07-23T06:27:33;95005.75;;;25.39;73.59
35989;BME280;22064;42.672;23.282;2022-07-23T06:29:58;95009.44;;;25.26;75.01
35989;BME280;22064;42.672;23.282;2022-07-23T06:32:24;95008.91;;;25.53;72.34
35989;BME280;22064;42.672;23.282;2022-07-23T06:34:50;95007.75;;;25.75;72.26
35989;BME280;22064;42.672;23.282;2022-07-23T06:37:16;95013.16;;;25.67;71.94
35989;BME280;22064;42.672;23.282;2022-07-23T06:39:42;95011.78;;;25.82;69.04
35989;BME280;22064;42.672;23.282;2022-07-23T06:42:07;95014.38;;;25.90;66.82
35989;BME280;22064;42.672;23.282;2022-07-23T06:44:42;95008.53;;;25.76;67.46
35989;BME280;22064;42.672;23.282;2022-07-23T06:47:08;95018.72;;;26.07;67.96
35989;BME280;22064;42.672;23.282;2022-07-23T06:49:34;95010.19;;;26.26;65.79
35989;BME280;22064;42.672;23.282;2022-07-23T06:52:00;95011.16;;;26.67;62.52
35989;BME280;22064;42.672;23.282;2022-07-23T06:54:25;95007.53;;;26.87;60.03
35989;BME280;22064;42.672;23.282;2022-07-23T06:56:51;94995.88;;;26.92;58.08
35989;BME280;22064;42.672;23.282;2022-07-23T06:59:17;95006.78;;;26.87;58.94
35989;BME280;22064;42.672;23.282;2022-07-23T07:01:42;95000.16;;;27.09;58.76
35989;BME280;22064;42.672;23.282;2022-07-23T07:04:08;95008.31;;;26.88;57.64
35989;BME280;22064;42.672;23.282;2022-07-23T07:06:34;95009.91;;;26.64;56.97
35989;BME280;22064;42.672;23.282;2022-07-23T07:08:59;94981.28;;;26.89;55.48
35989;BME280;22064;42.672;23.282;2022-07-23T07:11:25;94996.50;;;27.01;54.42
35989;BME280;22064;42.672;23.282;2022-07-23T07:13:51;95003.06;;;27.16;54.46
35989;BME280;22064;42.672;23.282;2022-07-23T07:16:17;94997.59;;;27.12;55.94
35989;BME280;22064;42.672;23.282;2022-07-23T07:18:42;94996.09;;;27.39;54.22
35989;BME280;22064;42.672;23.282;2022-07-23T07:21:08;94995.41;;;27.43;53.33
35989;BME280;22064;42.672;23.282;2022-07-23T07:23:33;94993.31;;;27.64;51.77
35989;BME280;22064;42.672;23.282;2022-07-23T07:25:59;94979.38;;;27.43;53.24
35989;BME280;22064;42.672;23.282;2022-07-23T07:28:24;94980.94;;;27.59;52.53
35989;BME280;22064;42.672;23.282;2022-07-23T07:30:50;94990.81;;;27.99;51.66
35989;BME280;22064;42.672;23.282;2022-07-23T07:33:16;94979.69;;;28.29;50.85
35989;BME280;22064;42.672;23.282;2022-07-23T07:35:41;94976.47;;;28.39;50.63
35989;BME280;22064;42.672;23.282;2022-07-23T07:38:07;94958.16;;;28.09;50.19
35989;BME280;22064;42.672;23.282;2022-07-23T07:40:32;94972.94;;;28.35;48.75
35989;BME280;22064;42.672;23.282;2022-07-23T07:42:58;94984.31;;;28.00;49.29
35989;BME280;22064;42.672;23.282;2022-07-23T07:45:24;94975.75;;;27.51;50.48
35989;BME280;22064;42.672;23.282;2022-07-23T07:47:51;94971.00;;;27.44;52.07
35989;BME280;22064;42.672;23.282;2022-07-23T07:50:18;94989.63;;;26.88;52.58
35989;BME280;22064;42.672;23.282;2022-07-23T07:52:44;94983.53;;;26.75;54.48
35989;BME280;22064;42.672;23.282;2022-07-23T07:55:10;94981.94;;;26.99;54.79
35989;BME280;22064;42.672;23.282;2022-07-23T07:57:37;94972.25;;;27.34;53.08
35989;BME280;22064;42.672;23.282;2022-07-23T08:00:05;94962.84;;;27.69;51.99
35989;BME280;22064;42.672;23.282;2022-07-23T08:02:51;94960.16;;;28.13;50.38
35989;BME280;22064;42.672;23.282;2022-07-23T08:05:22;94979.84;;;28.52;49.65
35989;BME280;22064;42.672;23.282;2022-07-23T08:07:48;94972.16;;;28.66;47.98
35989;BME280;22064;42.672;23.282;2022-07-23T08:10:14;94960.91;;;28.96;46.30
35989;BME280;22064;42.672;23.282;2022-07-23T08:12:45;94968.22;;;29.15;45.10
35989;BME280;22064;42.672;23.282;2022-07-23T08:15:12;94967.03;;;29.32;44.54
35989;BME280;22064;42.672;23.282;2022-07-23T08:17:38;94961.50;;;29.44;44.77
35989;BME280;22064;42.672;23.282;2022-07-23T08:20:05;94965.03;;;29.48;44.00
35989;BME280;22064;42.672;23.282;2022-07-23T08:22:54;94973.03;;;29.87;43.57
35989;BME280;22064;42.672;23.282;2022-07-23T08:25:21;94945.81;;;29.65;42.08
35989;BME280;22064;42.672;23.282;2022-07-23T08:27:47;94954.03;;;29.34;42.82
35989;BME280;22064;42.672;23.282;2022-07-23T08:30:12;94959.53;;;29.02;43.80
35989;BME280;22064;42.672;23.282;2022-07-23T08:35:27;94964.00;;;28.78;44.95
35989;BME280;22064;42.672;23.282;2022-07-23T08:37:54;94962.47;;;28.62;44.85
35989;BME280;22064;42.672;23.282;2022-07-23T08:40:20;94961.34;;;28.98;44.67
35989;BME280;22064;42.672;23.282;2022-07-23T08:42:50;94956.69;;;28.95;44.15
35989;BME280;22064;42.672;23.282;2022-07-23T08:45:18;94959.59;;;29.25;43.01
35989;BME280;22064;42.672;23.282;2022-07-23T08:47:44;94958.69;;;29.37;42.94
35989;BME280;22064;42.672;23.282;2022-07-23T08:50:10;94949.91;;;29.40;42.96
35989;BME280;22064;42.672;23.282;2022-07-23T08:52:37;94950.34;;;29.42;42.29
35989;BME280;22064;42.672;23.282;2022-07-23T08:55:04;94955.50;;;29.70;41.96
35989;BME280;22064;42.672;23.282;2022-07-23T08:57:30;94949.66;;;29.45;43.09
35989;BME280;22064;42.672;23.282;2022-07-23T08:59:56;94948.66;;;29.73;42.61
35989;BME280;22064;42.672;23.282;2022-07-23T09:02:22;94945.72;;;29.81;42.33
35989;BME280;22064;42.672;23.282;2022-07-23T09:04:47;94942.50;;;29.95;41.77
35989;BME280;22064;42.672;23.282;2022-07-23T09:07:13;94947.63;;;30.27;40.81
35989;BME280;22064;42.672;23.282;2022-07-23T09:09:39;94947.94;;;30.22;40.25
35989;BME280;22064;42.672;23.282;2022-07-23T09:12:06;94946.88;;;30.03;40.63
35989;BME280;22064;42.672;23.282;2022-07-23T09:14:42;94946.91;;;30.30;40.36
35989;BME280;22064;42.672;23.282;2022-07-23T09:17:10;94935.75;;;30.28;39.60
35989;BME280;22064;42.672;23.282;2022-07-23T09:19:36;94933.13;;;30.08;38.28
35989;BME280;22064;42.672;23.282;2022-07-23T09:25:25;94943.88;;;30.58;38.39
35989;BME280;22064;42.672;23.282;2022-07-23T09:27:56;94937.41;;;30.89;37.36
35989;BME280;22064;42.672;23.282;2022-07-23T09:30:27;94938.56;;;30.88;35.55
35989;BME280;22064;42.672;23.282;2022-07-23T09:33:25;94938.69;;;30.99;36.05
35989;BME280;22064;42.672;23.282;2022-07-23T09:35:55;94936.13;;;31.40;35.72
35989;BME280;22064;42.672;23.282;2022-07-23T09:38:23;94931.06;;;31.72;34.33
35989;BME280;22064;42.672;23.282;2022-07-23T09:41:10;94927.22;;;31.73;33.09
35989;BME280;22064;42.672;23.282;2022-07-23T09:43:36;94916.41;;;31.32;32.57
35989;BME280;22064;42.672;23.282;2022-07-23T09:46:19;94914.94;;;31.35;32.90
35989;BME280;22064;42.672;23.282;2022-07-23T09:48:46;94915.72;;;31.35;31.77
35989;BME280;22064;42.672;23.282;2022-07-23T09:51:12;94913.25;;;31.23;31.34
35989;BME280;22064;42.672;23.282;2022-07-23T09:53:39;94924.88;;;31.68;31.82
35989;BME280;22064;42.672;23.282;2022-07-23T09:56:05;94904.09;;;32.06;32.05
35989;BME280;22064;42.672;23.282;2022-07-23T09:58:32;94915.22;;;32.56;31.62
35989;BME280;22064;42.672;23.282;2022-07-23T10:00:58;94908.41;;;32.76;30.36
35989;BME280;22064;42.672;23.282;2022-07-23T10:03:24;94908.50;;;32.94;29.61
35989;BME280;22064;42.672;23.282;2022-07-23T10:06:13;94901.91;;;32.88;30.53
35989;BME280;22064;42.672;23.282;2022-07-23T10:09:12;94907.44;;;33.13;28.96
35989;BME280;22064;42.672;23.282;2022-07-23T10:12:03;94894.78;;;33.39;27.99
35989;BME280;22064;42.672;23.282;2022-07-23T10:14:59;94892.91;;;33.50;28.25
35989;BME280;22064;42.672;23.282;2022-07-23T10:17:25;94897.19;;;33.83;27.92
35989;BME280;22064;42.672;23.282;2022-07-23T10:19:51;94888.34;;;33.90;28.58
35989;BME280;22064;42.672;23.282;2022-07-23T10:22:22;94890.63;;;33.66;27.53
35989;BME280;22064;42.672;23.282;2022-07-23T10:30:12;94897.88;;;32.53;26.53
35989;BME280;22064;42.672;23.282;2022-07-23T10:35:36;94883.28;;;33.56;26.38
35989;BME280;22064;42.672;23.282;2022-07-23T10:40:34;94878.66;;;33.53;27.54
35989;BME280;22064;42.672;23.282;2022-07-23T10:43:00;94876.28;;;33.37;26.42
35989;BME280;22064;42.672;23.282;2022-07-23T10:45:34;94867.09;;;33.70;25.71
35989;BME280;22064;42.672;23.282;2022-07-23T10:48:13;94877.13;;;33.63;25.69
35989;BME280;22064;42.672;23.282;2022-07-23T10:50:39;94867.88;;;33.89;26.00
35989;BME280;22064;42.672;23.282;2022-07-23T10:58:00;94856.22;;;33.31;24.82
35989;BME280;22064;42.672;23.282;2022-07-23T11:00:29;94861.63;;;33.27;21.80
35989;BME280;22064;42.672;23.282;2022-07-23T11:02:56;94856.22;;;33.31;21.14
35989;BME280;22064;42.672;23.282;2022-07-23T11:05:24;94850.06;;;33.30;21.74
35989;BME280;22064;42.672;23.282;2022-07-23T11:10:45;94843.94;;;33.80;21.71
35989;BME280;22064;42.672;23.282;2022-07-23T11:24:10;94821.88;;;35.37;20.16
35989;BME280;22064;42.672;23.282;2022-07-23T11:32:20;94828.53;;;34.09;21.12
35989;BME280;22064;42.672;23.282;2022-07-23T11:34:48;94837.78;;;33.90;20.34
35989;BME280;22064;42.672;23.282;2022-07-23T11:39:59;94822.28;;;34.37;19.55
35989;BME280;22064;42.672;23.282;2022-07-23T11:42:25;94816.91;;;34.26;19.03
35989;BME280;22064;42.672;23.282;2022-07-23T11:44:51;94819.16;;;34.42;18.52
35989;BME280;22064;42.672;23.282;2022-07-23T11:47:22;94820.75;;;34.29;19.00
35989;BME280;22064;42.672;23.282;2022-07-23T11:49:55;94815.25;;;34.68;18.77
35989;BME280;22064;42.672;23.282;2022-07-23T11:52:22;94810.78;;;35.14;18.74
35989;BME280;22064;42.672;23.282;2022-07-23T11:54:53;94803.06;;;35.72;18.24
35989;BME280;22064;42.672;23.282;2022-07-23T11:57:24;94798.97;;;36.39;17.66
35989;BME280;22064;42.672;23.282;2022-07-23T11:59:53;94803.72;;;36.96;17.46
35989;BME280;22064;42.672;23.282;2022-07-23T12:02:20;94803.06;;;37.47;16.81
35989;BME280;22064;42.672;23.282;2022-07-23T12:04:50;94806.47;;;36.62;16.48
35989;BME280;22064;42.672;23.282;2022-07-23T12:09:55;94799.94;;;35.77;16.87
35989;BME280;22064;42.672;23.282;2022-07-23T12:12:21;94800.78;;;35.67;17.30
35989;BME280;22064;42.672;23.282;2022-07-23T12:14:57;94796.53;;;35.66;16.04
35989;BME280;22064;42.672;23.282;2022-07-23T12:17:32;94788.31;;;35.80;16.01
35989;BME280;22064;42.672;23.282;2022-07-23T12:19:58;94776.22;;;36.29;15.56
35989;BME280;22064;42.672;23.282;2022-07-23T12:22:26;94783.69;;;36.56;15.78
35989;BME280;22064;42.672;23.282;2022-07-23T12:25:00;94783.81;;;37.07;15.94
35989;BME280;22064;42.672;23.282;2022-07-23T12:27:26;94777.97;;;37.35;15.95
35989;BME280;22064;42.672;23.282;2022-07-23T12:29:52;94783.81;;;37.07;15.68
35989;BME280;22064;42.672;23.282;2022-07-23T12:32:23;94777.00;;;36.95;15.71
35989;BME280;22064;42.672;23.282;2022-07-23T12:35:06;94774.34;;;36.61;16.78
35989;BME280;22064;42.672;23.282;2022-07-23T12:37:35;94773.59;;;35.81;17.04
35989;BME280;22064;42.672;23.282;2022-07-23T12:43:08;94753.34;;;35.93;16.86
35989;BME280;22064;42.672;23.282;2022-07-23T12:48:28;94763.06;;;37.47;16.14
35989;BME280;22064;42.672;23.282;2022-07-23T12:51:02;94760.47;;;38.10;16.30
35989;BME280;22064;42.672;23.282;2022-07-23T12:56:12;94752.56;;;35.96;16.07
35989;BME280;22064;42.672;23.282;2022-07-23T13:06:32;94748.34;;;38.55;14.62
35989;BME280;22064;42.672;23.282;2022-07-23T13:08:59;94747.41;;;39.18;13.67
35989;BME280;22064;42.672;23.282;2022-07-23T13:11:24;94741.72;;;39.61;13.37
35989;BME280;22064;42.672;23.282;2022-07-23T13:13:50;94743.34;;;39.42;14.68
35989;BME280;22064;42.672;23.282;2022-07-23T13:16:16;94747.50;;;39.47;14.47
35989;BME280;22064;42.672;23.282;2022-07-23T13:18:42;94750.88;;;39.18;15.68
35989;BME280;22064;42.672;23.282;2022-07-23T13:21:08;94749.44;;;37.74;16.69
35989;BME280;22064;42.672;23.282;2022-07-23T13:23:33;94745.13;;;36.03;17.35
35989;BME280;22064;42.672;23.282;2022-07-23T13:25:59;94745.13;;;36.03;17.78
35989;BME280;22064;42.672;23.282;2022-07-23T13:28:24;94739.47;;;36.25;17.21
35989;BME280;22064;42.672;23.282;2022-07-23T13:30:51;94736.38;;;37.89;14.94
35989;BME280;22064;42.672;23.282;2022-07-23T13:33:22;94740.16;;;37.95;14.61
35989;BME280;22064;42.672;23.282;2022-07-23T13:35:48;94735.59;;;37.41;15.71
35989;BME280;22064;42.672;23.282;2022-07-23T13:38:14;94740.94;;;37.72;16.16
35989;BME280;22064;42.672;23.282;2022-07-23T13:40:42;94731.78;;;37.12;15.40
35989;BME280;22064;42.672;23.282;2022-07-23T13:43:10;94730.34;;;37.04;15.46
35989;BME280;22064;42.672;23.282;2022-07-23T13:45:36;94726.53;;;37.52;14.46
35989;BME280;22064;42.672;23.282;2022-07-23T13:48:03;94725.16;;;39.03;13.24
35989;BME280;22064;42.672;23.282;2022-07-23T13:50:29;94719.50;;;39.46;12.56